createdAt,value
2017-09-14T00:01:17.949Z,13.50
2017-09-14T00:03:44.888Z,13.50
2017-09-14T00:06:11.840Z,13.50
2017-09-14T00:08:38.866Z,13.50
2017-09-14T00:11:05.816Z,13.60
2017-09-14T00:13:32.060Z,13.60
2017-09-14T00:15:59.048Z,13.70
2017-09-14T00:18:25.248Z,13.70
2017-09-14T00:23:47.019Z,13.80
2017-09-14T00:26:13.221Z,13.80
2017-09-14T00:28:39.437Z,13.80
2017-09-14T00:31:06.417Z,13.70
2017-09-14T00:33:32.686Z,13.70
2017-09-14T00:35:58.944Z,13.80
2017-09-14T00:38:25.917Z,13.80
2017-09-14T00:40:52.139Z,13.80
2017-09-14T00:43:18.341Z,13.80
2017-09-14T00:45:45.277Z,13.80
2017-09-14T00:48:12.247Z,13.90
2017-09-14T00:50:38.427Z,13.90
2017-09-14T00:53:04.621Z,13.90
2017-09-14T00:55:30.846Z,13.90
2017-09-14T00:57:57.031Z,14.00
2017-09-14T01:00:24.057Z,14.00
2017-09-14T01:02:50.287Z,14.00
2017-09-14T01:05:16.515Z,14.00
2017-09-14T01:07:42.716Z,14.00
2017-09-14T01:10:09.010Z,14.00
2017-09-14T01:12:36.034Z,14.00
2017-09-14T01:15:02.250Z,14.00
2017-09-14T01:17:28.477Z,14.00
2017-09-14T01:19:54.691Z,14.10
2017-09-14T01:22:20.880Z,14.20
2017-09-14T01:24:47.086Z,14.10
2017-09-14T01:27:14.036Z,14.10
2017-09-14T01:29:40.984Z,14.10
2017-09-14T01:32:07.940Z,14.00
2017-09-14T01:34:34.878Z,14.10
2017-09-14T01:37:01.849Z,14.10
2017-09-14T01:39:28.090Z,14.00
2017-09-14T01:41:54.308Z,14.00
2017-09-14T01:44:20.498Z,14.00
2017-09-14T01:46:47.498Z,14.10
2017-09-14T01:49:13.754Z,14.10
2017-09-14T01:51:39.937Z,14.10
2017-09-14T01:54:06.199Z,14.00
2017-09-14T01:56:32.408Z,14.10
2017-09-14T01:58:58.623Z,14.10
2017-09-14T02:01:24.820Z,14.20
2017-09-14T02:03:51.770Z,14.20
2017-09-14T02:06:17.995Z,14.20
2017-09-14T02:08:44.941Z,14.20
2017-09-14T02:11:11.896Z,14.20
2017-09-14T02:13:38.833Z,14.20
2017-09-14T02:16:05.825Z,14.20
2017-09-14T02:18:32.049Z,14.20
2017-09-14T02:20:58.316Z,14.20
2017-09-14T02:23:24.522Z,14.30
2017-09-14T02:25:50.728Z,14.20
2017-09-14T02:28:16.960Z,14.20
2017-09-14T02:30:43.222Z,14.20
2017-09-14T02:33:09.404Z,14.20
2017-09-14T02:35:35.618Z,14.20
2017-09-14T02:38:01.860Z,14.10
2017-09-14T02:40:28.062Z,14.10
2017-09-14T02:42:55.040Z,14.10
2017-09-14T02:45:21.262Z,14.10
2017-09-14T02:47:47.458Z,14.10
2017-09-14T02:50:14.417Z,14.10
2017-09-14T02:52:40.725Z,14.00
2017-09-14T02:55:06.953Z,14.10
2017-09-14T02:57:33.186Z,14.10
2017-09-14T02:59:59.415Z,14.00
2017-09-14T03:02:25.625Z,14.00
2017-09-14T03:04:51.872Z,13.90
2017-09-14T03:07:18.136Z,13.90
2017-09-14T03:09:44.338Z,14.00
2017-09-14T03:12:10.585Z,14.00
2017-09-14T03:14:37.584Z,14.10
2017-09-14T03:17:03.869Z,14.10
2017-09-14T03:19:30.091Z,14.20
2017-09-14T03:21:57.073Z,14.30
2017-09-14T03:24:23.328Z,14.20
2017-09-14T03:26:49.569Z,14.30
2017-09-14T03:29:15.845Z,14.30
2017-09-14T03:31:42.071Z,14.20
2017-09-14T03:34:08.315Z,14.30
2017-09-14T03:36:34.541Z,14.30
2017-09-14T03:39:00.787Z,14.40
2017-09-14T03:41:27.027Z,14.40
2017-09-14T03:43:53.376Z,14.50
2017-09-14T03:46:19.624Z,14.50
2017-09-14T03:48:46.559Z,14.50
2017-09-14T03:51:12.757Z,14.50
2017-09-14T03:53:38.975Z,14.50
2017-09-14T03:56:05.181Z,14.50
2017-09-14T03:58:31.387Z,14.50
2017-09-14T04:00:57.615Z,14.50
2017-09-14T04:03:23.856Z,14.60
2017-09-14T04:05:50.125Z,14.60
2017-09-14T04:08:16.604Z,14.50
2017-09-14T04:10:42.810Z,14.50
2017-09-14T04:13:09.022Z,14.50
2017-09-14T04:15:35.352Z,14.60
2017-09-14T04:18:01.587Z,14.60
2017-09-14T04:20:27.820Z,14.60
2017-09-14T04:22:54.044Z,14.50
2017-09-14T04:25:20.338Z,14.50
2017-09-14T04:27:46.622Z,14.50
2017-09-14T04:30:12.890Z,14.50
2017-09-14T04:32:39.116Z,14.50
2017-09-14T04:35:05.316Z,14.40
2017-09-14T04:37:31.544Z,14.40
2017-09-14T04:39:58.489Z,14.40
2017-09-14T04:42:26.280Z,14.40
2017-09-14T04:44:52.555Z,14.40
2017-09-14T04:47:18.804Z,14.50
2017-09-14T04:49:45.043Z,14.50
2017-09-14T04:52:12.050Z,14.40
2017-09-14T04:54:38.291Z,14.40
2017-09-14T04:57:04.491Z,14.50
2017-09-14T04:59:30.797Z,14.40
2017-09-14T05:01:57.748Z,14.40
2017-09-14T05:04:23.971Z,14.30
2017-09-14T05:06:50.965Z,14.30
2017-09-14T05:09:17.160Z,14.30
2017-09-14T05:11:43.393Z,14.30
2017-09-14T05:14:09.707Z,14.20
2017-09-14T05:16:36.673Z,14.20
2017-09-14T05:19:02.931Z,14.20
2017-09-14T05:21:29.420Z,14.30
2017-09-14T05:23:55.672Z,14.30
2017-09-14T05:26:21.892Z,14.30
2017-09-14T05:28:48.135Z,14.30
2017-09-14T05:31:14.353Z,14.30
2017-09-14T05:33:40.604Z,14.30
2017-09-14T05:36:06.855Z,14.30
2017-09-14T05:38:33.860Z,14.30
2017-09-14T05:41:00.081Z,14.30
2017-09-14T05:43:26.316Z,14.40
2017-09-14T05:45:52.606Z,14.40
2017-09-14T05:48:18.810Z,14.40
2017-09-14T05:50:45.060Z,14.40
2017-09-14T05:53:11.272Z,14.40
2017-09-14T05:55:37.532Z,14.50
2017-09-14T05:58:04.574Z,14.30
2017-09-14T06:00:31.544Z,14.40
2017-09-14T06:02:57.768Z,14.40
2017-09-14T06:05:25.501Z,14.40
2017-09-14T06:07:51.742Z,14.40
2017-09-14T06:10:18.730Z,14.40
2017-09-14T06:12:44.947Z,14.40
2017-09-14T06:15:11.179Z,14.40
2017-09-14T06:17:37.385Z,14.40
2017-09-14T06:20:04.335Z,14.40
2017-09-14T06:22:31.315Z,14.40
2017-09-14T06:24:57.557Z,14.40
2017-09-14T06:27:23.752Z,14.40
2017-09-14T06:29:50.949Z,14.40
2017-09-14T06:32:17.231Z,14.30
2017-09-14T06:34:43.441Z,14.40
2017-09-14T06:37:10.378Z,14.40
2017-09-14T06:39:37.356Z,14.50
2017-09-14T06:42:03.566Z,14.50
2017-09-14T06:44:30.532Z,14.40
2017-09-14T06:46:56.761Z,14.40
2017-09-14T06:49:23.006Z,14.50
2017-09-14T06:51:49.196Z,14.50
2017-09-14T06:54:16.218Z,14.60
2017-09-14T06:56:42.416Z,14.60
2017-09-14T06:59:08.673Z,14.60
2017-09-14T07:01:34.942Z,14.60
2017-09-14T07:04:01.148Z,14.70
2017-09-14T07:06:28.193Z,14.80
2017-09-14T07:08:55.469Z,14.80
2017-09-14T07:11:22.499Z,14.80
2017-09-14T07:13:49.591Z,14.80
2017-09-14T07:16:15.845Z,14.80
2017-09-14T07:18:42.095Z,14.80
2017-09-14T07:21:08.659Z,14.90
2017-09-14T07:23:35.643Z,15.00
2017-09-14T07:26:01.863Z,15.00
2017-09-14T07:28:28.098Z,15.00
2017-09-14T07:30:54.346Z,15.00
2017-09-14T07:33:20.617Z,15.10
2017-09-14T07:35:47.532Z,15.20
2017-09-14T07:38:13.755Z,15.20
2017-09-14T07:40:39.969Z,15.30
2017-09-14T07:43:06.234Z,15.40
2017-09-14T07:45:32.492Z,15.40
2017-09-14T07:47:58.770Z,15.30
2017-09-14T07:50:25.719Z,15.40
2017-09-14T07:52:51.954Z,15.40
2017-09-14T07:55:18.218Z,15.60
2017-09-14T07:57:45.185Z,15.50
2017-09-14T08:00:11.420Z,15.50
2017-09-14T08:02:37.636Z,15.60
2017-09-14T08:05:03.872Z,15.60
2017-09-14T08:07:30.147Z,15.60
2017-09-14T08:09:56.393Z,15.60
2017-09-14T08:12:23.365Z,15.80
2017-09-14T08:14:49.592Z,15.70
2017-09-14T08:17:15.830Z,15.90
2017-09-14T08:19:42.040Z,15.90
2017-09-14T08:22:09.017Z,15.80
2017-09-14T08:24:35.327Z,15.80
2017-09-14T08:27:01.589Z,15.80
2017-09-14T08:29:27.839Z,15.80
2017-09-14T08:31:54.044Z,15.70
2017-09-14T08:34:20.251Z,15.70
2017-09-14T08:36:46.482Z,15.90
2017-09-14T08:39:12.696Z,15.90
2017-09-14T08:41:38.883Z,16.00
2017-09-14T08:44:05.075Z,16.00
2017-09-14T08:46:31.313Z,15.90
2017-09-14T08:48:57.533Z,15.90
2017-09-14T08:51:23.833Z,16.10
2017-09-14T08:53:50.795Z,16.00
2017-09-14T08:56:17.018Z,16.00
2017-09-14T08:58:43.230Z,16.00
2017-09-14T09:01:11.744Z,16.00
2017-09-14T09:03:38.024Z,16.00
2017-09-14T09:06:04.236Z,15.90
2017-09-14T09:08:30.438Z,15.90
2017-09-14T09:10:56.671Z,15.80
2017-09-14T09:13:22.920Z,15.80
2017-09-14T09:15:49.148Z,15.90
2017-09-14T09:18:15.361Z,16.00
2017-09-14T09:20:41.578Z,16.20
2017-09-14T09:23:07.806Z,16.30
2017-09-14T09:25:34.059Z,16.50
2017-09-14T09:28:00.364Z,16.60
2017-09-14T09:30:26.607Z,16.70
2017-09-14T09:32:52.899Z,16.50
2017-09-14T09:35:19.878Z,16.20
2017-09-14T09:37:46.132Z,16.20
2017-09-14T09:40:12.341Z,16.10
2017-09-14T09:42:38.557Z,16.00
2017-09-14T09:45:04.780Z,16.00
2017-09-14T09:47:31.010Z,16.00
2017-09-14T09:49:57.265Z,16.00
2017-09-14T09:52:24.991Z,16.20
2017-09-14T09:54:51.204Z,16.20
2017-09-14T09:57:17.457Z,16.30
2017-09-14T09:59:43.659Z,16.50
2017-09-14T10:02:10.623Z,16.40
2017-09-14T10:04:36.852Z,16.40
2017-09-14T10:07:03.074Z,16.60
2017-09-14T10:09:30.062Z,16.70
2017-09-14T10:11:57.181Z,16.70
2017-09-14T10:14:23.409Z,16.50
2017-09-14T10:16:49.644Z,16.30
2017-09-14T10:19:15.936Z,16.30
2017-09-14T10:21:43.001Z,16.60
2017-09-14T10:24:09.235Z,16.60
2017-09-14T10:26:36.219Z,16.70
2017-09-14T10:29:02.518Z,16.70
2017-09-14T10:31:28.778Z,16.70
2017-09-14T10:33:55.114Z,16.60
2017-09-14T10:36:21.368Z,16.60
2017-09-14T10:38:47.586Z,16.30
2017-09-14T10:41:13.968Z,16.30
2017-09-14T10:43:40.239Z,16.10
2017-09-14T10:46:06.574Z,16.20
2017-09-14T10:48:32.857Z,16.20
2017-09-14T10:50:59.056Z,16.30
2017-09-14T10:53:25.276Z,16.00
2017-09-14T10:55:51.479Z,16.00
2017-09-14T10:58:17.690Z,16.00
2017-09-14T11:00:43.991Z,16.00
2017-09-14T11:03:10.976Z,16.10
2017-09-14T11:05:37.164Z,16.00
2017-09-14T11:08:04.199Z,16.00
2017-09-14T11:10:30.453Z,16.10
2017-09-14T11:12:56.674Z,16.00
2017-09-14T11:15:22.871Z,15.90
2017-09-14T11:17:49.042Z,15.80
2017-09-14T11:20:15.287Z,15.70
2017-09-14T11:22:41.504Z,15.60
2017-09-14T11:25:08.203Z,15.70
2017-09-14T11:27:34.369Z,15.80
2017-09-14T11:30:00.637Z,15.70
2017-09-14T11:32:26.841Z,15.70
2017-09-14T11:34:53.041Z,15.60
2017-09-14T11:37:20.107Z,15.60
2017-09-14T11:39:46.319Z,15.60
2017-09-14T11:42:13.259Z,15.40
2017-09-14T11:44:40.264Z,15.40
2017-09-14T11:47:06.471Z,15.40
2017-09-14T11:49:32.699Z,15.50
2017-09-14T11:51:58.947Z,15.40
2017-09-14T11:54:25.160Z,15.20
2017-09-14T11:56:51.377Z,15.30
2017-09-14T11:59:18.402Z,15.20
2017-09-14T12:01:45.362Z,15.40
2017-09-14T12:04:11.546Z,15.40
2017-09-14T12:06:37.825Z,15.40
2017-09-14T12:09:04.042Z,15.20
2017-09-14T12:11:30.230Z,15.30
2017-09-14T12:13:56.491Z,15.20
2017-09-14T12:16:23.450Z,15.10
2017-09-14T12:18:49.628Z,15.10
2017-09-14T12:21:15.834Z,15.20
2017-09-14T12:23:42.046Z,15.30
2017-09-14T12:26:08.283Z,15.20
2017-09-14T12:28:34.506Z,15.30
2017-09-14T12:31:01.533Z,15.30
2017-09-14T12:33:28.494Z,15.40
2017-09-14T12:35:54.707Z,15.40
2017-09-14T12:38:20.929Z,15.30
2017-09-14T12:40:47.895Z,15.00
2017-09-14T12:43:14.988Z,15.00
2017-09-14T12:45:41.465Z,14.90
2017-09-14T12:48:07.665Z,14.90
2017-09-14T12:50:33.891Z,14.70
2017-09-14T12:53:00.069Z,14.60
2017-09-14T12:55:26.291Z,14.50
2017-09-14T12:57:52.519Z,14.40
2017-09-14T13:00:18.786Z,14.20
2017-09-14T13:02:44.991Z,14.10
2017-09-14T13:05:11.199Z,14.00
2017-09-14T13:07:37.441Z,14.00
2017-09-14T13:10:03.671Z,13.90
2017-09-14T13:12:29.922Z,13.90
2017-09-14T13:14:56.132Z,13.80
2017-09-14T13:17:22.408Z,14.10
2017-09-14T13:19:48.671Z,14.20
2017-09-14T13:22:14.878Z,14.20
2017-09-14T13:24:41.872Z,13.90
2017-09-14T13:27:08.073Z,13.90
2017-09-14T13:29:34.282Z,13.90
2017-09-14T13:32:01.280Z,13.80
2017-09-14T13:34:27.500Z,13.80
2017-09-14T13:36:53.728Z,13.80
2017-09-14T13:39:19.958Z,13.80
2017-09-14T13:41:46.262Z,13.80
2017-09-14T13:44:12.510Z,13.80
2017-09-14T13:46:38.724Z,14.00
2017-09-14T13:49:04.950Z,13.90
2017-09-14T13:51:31.912Z,13.70
2017-09-14T13:53:58.148Z,13.80
2017-09-14T13:56:24.382Z,13.80
2017-09-14T13:58:50.609Z,13.80
2017-09-14T14:01:16.849Z,13.80
2017-09-14T14:03:43.041Z,13.80
2017-09-14T14:06:09.291Z,13.80
2017-09-14T14:08:35.480Z,13.80
2017-09-14T14:11:02.471Z,13.80
2017-09-14T14:13:28.707Z,13.80
2017-09-14T14:15:54.883Z,13.80
2017-09-14T14:18:21.859Z,13.70
2017-09-14T14:20:48.101Z,13.70
2017-09-14T14:23:14.336Z,13.70
2017-09-14T14:25:40.569Z,13.80
2017-09-14T14:28:06.780Z,13.80
2017-09-14T14:30:32.973Z,13.90
2017-09-14T14:32:59.941Z,14.00
2017-09-14T14:35:26.177Z,13.90
2017-09-14T14:37:52.400Z,13.90
2017-09-14T14:40:18.630Z,13.90
2017-09-14T14:42:44.856Z,13.90
2017-09-14T14:45:11.082Z,13.90
2017-09-14T14:47:37.338Z,13.90
2017-09-14T14:50:03.590Z,13.80
2017-09-14T14:52:29.873Z,13.90
2017-09-14T14:54:56.445Z,13.90
2017-09-14T14:57:22.653Z,13.90
2017-09-14T14:59:48.867Z,13.90
2017-09-14T15:02:15.126Z,13.90
2017-09-14T15:04:41.352Z,13.90
2017-09-14T15:07:07.612Z,13.90
2017-09-14T15:09:33.828Z,13.90
2017-09-14T15:12:00.047Z,14.00
2017-09-14T15:14:26.274Z,13.90
2017-09-14T15:16:52.495Z,14.00
2017-09-14T15:19:18.696Z,13.90
2017-09-14T15:21:44.990Z,13.90
2017-09-14T15:24:11.170Z,13.90
2017-09-14T15:26:37.409Z,13.80
2017-09-14T15:29:03.652Z,14.00
2017-09-14T15:31:30.079Z,14.10
2017-09-14T15:33:56.590Z,15.40
2017-09-14T15:36:22.818Z,15.10
2017-09-14T15:38:55.225Z,16.40
2017-09-14T15:41:27.936Z,15.50
2017-09-14T15:44:00.989Z,16.30
2017-09-14T15:46:27.465Z,16.30
2017-09-14T15:49:00.601Z,16.40
2017-09-14T15:51:33.091Z,16.30
2017-09-14T15:53:59.347Z,17.80
2017-09-14T15:56:26.389Z,18.10
2017-09-14T15:58:53.467Z,17.90
2017-09-14T16:01:19.726Z,17.90
2017-09-14T16:03:45.909Z,19.70
2017-09-14T16:06:12.176Z,19.00
2017-09-14T16:08:38.383Z,16.90
2017-09-14T16:11:05.388Z,15.10
2017-09-14T16:13:31.604Z,15.10
2017-09-14T16:15:57.908Z,14.70
2017-09-14T16:18:24.138Z,14.50
2017-09-14T16:20:50.415Z,14.40
2017-09-14T16:23:16.632Z,14.20
2017-09-14T16:25:42.840Z,14.10
2017-09-14T16:28:09.086Z,14.00
2017-09-14T16:30:35.354Z,14.00
2017-09-14T16:33:02.335Z,14.00
2017-09-14T16:35:28.516Z,13.90
2017-09-14T16:37:54.754Z,13.90
2017-09-14T16:40:20.981Z,13.90
2017-09-14T16:43:00.970Z,13.80
2017-09-14T16:45:27.208Z,13.80
2017-09-14T16:47:53.456Z,13.80
2017-09-14T16:50:19.676Z,13.60
2017-09-14T16:52:45.945Z,13.60
2017-09-14T16:55:13.041Z,13.40
2017-09-14T16:57:39.281Z,13.40
2017-09-14T17:00:05.531Z,13.40
2017-09-14T17:02:31.743Z,13.30
2017-09-14T17:04:57.989Z,13.30
2017-09-14T17:07:37.114Z,13.20
2017-09-14T17:10:03.337Z,13.10
2017-09-14T17:12:29.589Z,13.10
2017-09-14T17:14:55.820Z,13.00
2017-09-14T17:17:22.829Z,13.00
2017-09-14T17:19:49.045Z,13.00
2017-09-14T17:22:15.295Z,12.90
2017-09-14T17:24:41.534Z,12.80
2017-09-14T17:27:07.748Z,12.80
2017-09-14T17:29:33.972Z,12.70
2017-09-14T17:32:00.215Z,12.70
2017-09-14T17:34:26.421Z,12.70
2017-09-14T17:36:52.632Z,12.70
2017-09-14T17:39:19.631Z,12.60
2017-09-14T17:41:45.833Z,12.60
2017-09-14T17:44:12.107Z,12.50
2017-09-14T17:46:39.159Z,12.60
2017-09-14T17:49:06.118Z,12.50
2017-09-14T17:51:33.086Z,12.50
2017-09-14T17:53:59.308Z,12.50
2017-09-14T17:56:25.557Z,12.50
2017-09-14T17:58:51.794Z,12.50
2017-09-14T18:01:25.071Z,12.50
2017-09-14T18:03:51.305Z,12.40
2017-09-14T18:06:17.732Z,12.40
2017-09-14T18:08:43.950Z,12.40
2017-09-14T18:11:10.179Z,12.40
2017-09-14T18:13:37.161Z,12.40
2017-09-14T18:16:03.472Z,12.40
2017-09-14T18:18:29.686Z,12.40
2017-09-14T18:20:55.952Z,12.40
2017-09-14T18:23:22.256Z,12.40
2017-09-14T18:25:48.512Z,12.40
2017-09-14T18:28:14.762Z,12.40
2017-09-14T18:30:41.012Z,12.40
2017-09-14T18:33:07.236Z,12.30
2017-09-14T18:35:34.294Z,12.20
2017-09-14T18:38:00.500Z,12.20
2017-09-14T18:40:26.948Z,12.20
2017-09-14T18:42:53.145Z,12.10
2017-09-14T18:45:19.334Z,12.20
2017-09-14T18:47:45.535Z,12.10
2017-09-14T18:50:11.734Z,12.10
2017-09-14T18:52:37.937Z,12.20
2017-09-14T18:55:04.153Z,12.10
2017-09-14T18:57:30.359Z,12.10
2017-09-14T18:59:57.359Z,12.10
2017-09-14T19:02:23.583Z,12.10
2017-09-14T19:04:49.816Z,12.00
2017-09-14T19:07:16.056Z,12.10
2017-09-14T19:09:42.281Z,12.00
2017-09-14T19:12:08.573Z,12.00
2017-09-14T19:14:34.821Z,12.00
2017-09-14T19:17:01.045Z,12.10
2017-09-14T19:19:27.255Z,12.00
2017-09-14T19:21:53.989Z,12.00
2017-09-14T19:24:20.166Z,12.00
2017-09-14T19:26:46.409Z,12.00
2017-09-14T19:29:12.681Z,12.00
2017-09-14T19:31:38.993Z,11.90
2017-09-14T19:34:05.947Z,11.90
2017-09-14T19:36:32.965Z,12.00
2017-09-14T19:38:59.155Z,12.00
2017-09-14T19:41:25.355Z,12.00
2017-09-14T19:43:52.349Z,11.90
2017-09-14T19:46:18.597Z,11.90
2017-09-14T19:48:44.830Z,12.00
2017-09-14T19:51:11.296Z,12.00
2017-09-14T19:53:37.492Z,12.00
2017-09-14T19:56:03.721Z,12.00
2017-09-14T19:58:30.043Z,12.00
2017-09-14T20:00:56.265Z,12.00
2017-09-14T20:03:22.468Z,12.00
2017-09-14T20:05:48.698Z,12.00
2017-09-14T20:08:14.928Z,12.20
2017-09-14T20:10:41.150Z,12.10
2017-09-14T20:13:07.354Z,12.10
2017-09-14T20:15:34.369Z,12.10
2017-09-14T20:18:00.580Z,12.10
2017-09-14T20:20:26.855Z,12.10
2017-09-14T20:22:53.081Z,12.20
2017-09-14T20:25:20.102Z,12.20
2017-09-14T20:27:47.826Z,12.20
2017-09-14T20:30:14.069Z,12.20
2017-09-14T20:32:40.350Z,12.20
2017-09-14T20:35:07.318Z,12.20
2017-09-14T20:37:33.575Z,12.20
2017-09-14T20:39:59.818Z,12.30
2017-09-14T20:42:26.077Z,12.30
2017-09-14T20:44:53.045Z,12.20
2017-09-14T20:47:19.349Z,12.20
2017-09-14T20:49:46.285Z,12.20
2017-09-14T20:52:12.543Z,12.10
2017-09-14T20:54:38.763Z,12.10
2017-09-14T20:57:04.988Z,12.10
2017-09-14T20:59:31.956Z,12.10
2017-09-14T21:01:58.216Z,12.00
2017-09-14T21:04:24.401Z,12.10
2017-09-14T21:06:50.644Z,12.20
2017-09-14T21:09:16.842Z,12.30
2017-09-14T21:11:43.068Z,12.30
2017-09-14T21:14:09.312Z,12.40
2017-09-14T21:16:36.239Z,12.40
2017-09-14T21:19:02.450Z,12.40
2017-09-14T21:21:30.605Z,12.40
2017-09-14T21:23:56.796Z,12.40
2017-09-14T21:26:23.824Z,12.40
2017-09-14T21:28:50.981Z,12.50
2017-09-14T21:31:17.959Z,12.50
2017-09-14T21:33:44.209Z,12.40
2017-09-14T21:36:10.431Z,12.40
2017-09-14T21:38:36.660Z,12.30
2017-09-14T21:41:02.823Z,12.30
2017-09-14T21:43:29.065Z,12.20
2017-09-14T21:45:56.008Z,12.00
2017-09-14T21:48:22.237Z,12.00
2017-09-14T21:50:48.429Z,11.90
2017-09-14T21:53:14.721Z,11.90
2017-09-14T21:55:40.925Z,11.90
2017-09-14T21:58:07.867Z,11.90
2017-09-14T22:00:34.071Z,11.80
2017-09-14T22:03:00.319Z,11.90
2017-09-14T22:05:28.032Z,11.90
2017-09-14T22:07:54.290Z,11.80
2017-09-14T22:10:20.518Z,11.80
2017-09-14T22:12:46.737Z,11.80
2017-09-14T22:15:13.045Z,11.80
2017-09-14T22:17:39.268Z,11.70
2017-09-14T22:20:05.456Z,11.70
2017-09-14T22:22:31.720Z,11.70
2017-09-14T22:24:57.942Z,11.70
2017-09-14T22:27:24.345Z,11.60
2017-09-14T22:29:51.328Z,11.50
2017-09-14T22:32:17.544Z,11.50
2017-09-14T22:34:43.786Z,11.40
2017-09-14T22:37:09.954Z,11.40
2017-09-14T22:39:36.183Z,11.20
2017-09-14T22:42:02.422Z,11.00
2017-09-14T22:44:28.629Z,10.60
2017-09-14T22:46:54.896Z,10.50
2017-09-14T22:49:21.090Z,10.50
2017-09-14T22:51:47.335Z,10.50
2017-09-14T22:54:13.565Z,10.50
2017-09-14T22:56:39.791Z,10.60
2017-09-14T22:59:06.001Z,10.50
2017-09-14T23:01:32.215Z,10.50
2017-09-14T23:03:58.409Z,10.40
2017-09-14T23:06:25.389Z,10.40
2017-09-14T23:08:51.605Z,10.40
2017-09-14T23:11:17.831Z,10.50
2017-09-14T23:13:44.043Z,10.50
2017-09-14T23:16:11.023Z,10.50
2017-09-14T23:18:37.272Z,10.50
2017-09-14T23:21:03.542Z,10.50
2017-09-14T23:23:30.459Z,10.40
2017-09-14T23:25:56.651Z,10.30
2017-09-14T23:28:22.876Z,10.40
2017-09-14T23:30:49.103Z,10.40
2017-09-14T23:33:15.344Z,10.40
2017-09-14T23:35:41.583Z,10.40
2017-09-14T23:38:07.790Z,10.30
2017-09-14T23:40:34.010Z,10.40
2017-09-14T23:43:00.247Z,10.40
2017-09-14T23:45:26.455Z,10.30
2017-09-14T23:47:53.402Z,10.40
2017-09-14T23:50:20.409Z,10.50
2017-09-14T23:52:46.608Z,10.50
2017-09-14T23:55:12.834Z,10.60
2017-09-14T23:57:39.052Z,10.60
